createdAt,value
2023-01-06T00:02:45.473Z,2.30
2023-01-06T00:05:49.465Z,3.60
2023-01-06T00:08:58.488Z,2.70
2023-01-06T00:12:04.159Z,2.40
2023-01-06T00:15:09.071Z,2.60
2023-01-06T00:18:13.586Z,2.10
2023-01-06T00:21:17.666Z,2.40
2023-01-06T00:24:21.654Z,2.80
2023-01-06T00:27:25.666Z,2.70
2023-01-06T00:30:29.784Z,2.80
2023-01-06T00:33:33.806Z,2.00
2023-01-06T00:36:37.750Z,2.80
2023-01-06T00:39:41.705Z,2.70
2023-01-06T00:42:45.745Z,2.40
2023-01-06T00:45:49.760Z,2.30
2023-01-06T00:49:04.766Z,3.30
2023-01-06T00:52:12.276Z,2.70
2023-01-06T00:55:16.656Z,2.40
2023-01-06T00:58:20.673Z,3.20
2023-01-06T01:01:24.903Z,3.70
2023-01-06T01:04:29.552Z,2.80
2023-01-06T01:07:33.605Z,3.80
2023-01-06T01:10:37.514Z,3.00
2023-01-06T01:13:41.463Z,1.90
2023-01-06T01:16:45.895Z,3.00
2023-01-06T01:19:51.794Z,3.20
2023-01-06T01:22:55.767Z,2.60
2023-01-06T01:26:00.882Z,2.70
2023-01-06T01:29:05.236Z,2.50
2023-01-06T01:32:09.300Z,2.40
2023-01-06T01:35:13.755Z,2.60
2023-01-06T01:38:17.796Z,3.00
2023-01-06T01:41:23.139Z,4.20
2023-01-06T01:44:51.937Z,3.00
2023-01-06T01:47:59.005Z,2.10
2023-01-06T01:51:07.480Z,2.20
2023-01-06T01:54:17.963Z,2.10
2023-01-06T01:57:29.815Z,2.60
2023-01-06T02:00:35.993Z,2.30
2023-01-06T02:03:42.091Z,2.80
2023-01-06T02:06:50.440Z,3.10
2023-01-06T02:10:05.492Z,2.00
2023-01-06T02:13:09.628Z,2.40
2023-01-06T02:16:22.090Z,2.60
2023-01-06T02:19:35.099Z,2.50
2023-01-06T02:23:01.023Z,2.70
2023-01-06T02:26:43.105Z,3.00
2023-01-06T02:30:12.034Z,2.70
2023-01-06T02:33:25.368Z,2.40
2023-01-06T02:37:03.996Z,2.10
2023-01-06T02:40:13.947Z,2.60
2023-01-06T02:43:36.194Z,2.30
2023-01-06T02:46:58.335Z,2.90
2023-01-06T02:50:13.986Z,2.90
2023-01-06T02:53:30.123Z,2.60
2023-01-06T02:56:39.461Z,2.80
2023-01-06T03:00:02.743Z,2.30
2023-01-06T03:03:17.071Z,3.10
2023-01-06T03:06:26.496Z,2.50
2023-01-06T03:09:35.746Z,2.60
2023-01-06T03:13:15.302Z,2.40
2023-01-06T03:16:20.544Z,2.10
2023-01-06T03:19:25.582Z,1.70
2023-01-06T03:22:30.951Z,1.70
2023-01-06T03:25:38.348Z,2.40
2023-01-06T03:28:43.045Z,1.90
2023-01-06T03:32:17.735Z,1.70
2023-01-06T03:39:08.024Z,1.70
2023-01-06T03:42:59.130Z,1.70
2023-01-06T03:46:16.765Z,1.30
2023-01-06T03:49:30.057Z,1.40
2023-01-06T03:52:43.156Z,1.40
2023-01-06T03:55:58.047Z,2.30
2023-01-06T03:59:08.559Z,2.30
2023-01-06T04:02:13.373Z,1.80
2023-01-06T04:05:21.623Z,2.20
2023-01-06T04:08:26.599Z,1.80
2023-01-06T04:11:49.370Z,1.50
2023-01-06T04:14:53.546Z,2.60
2023-01-06T04:17:57.544Z,2.40
2023-01-06T04:21:01.998Z,1.70
2023-01-06T04:24:07.515Z,2.40
2023-01-06T04:27:13.065Z,2.20
2023-01-06T04:30:18.530Z,2.20
2023-01-06T04:33:22.568Z,1.50
2023-01-06T04:36:27.102Z,2.30
2023-01-06T04:39:31.862Z,1.70
2023-01-06T04:43:01.796Z,2.40
2023-01-06T04:46:06.372Z,2.30
2023-01-06T04:52:16.313Z,1.40
2023-01-06T04:55:20.265Z,3.00
2023-01-06T04:58:24.394Z,1.90
2023-01-06T05:01:28.388Z,3.00
2023-01-06T05:04:46.624Z,2.50
2023-01-06T05:07:54.975Z,2.00
2023-01-06T05:11:04.824Z,2.50
2023-01-06T05:14:08.847Z,3.20
2023-01-06T05:17:12.788Z,3.10
2023-01-06T05:20:16.973Z,2.60
2023-01-06T05:23:21.955Z,3.40
2023-01-06T05:26:27.632Z,2.30
2023-01-06T05:29:31.874Z,3.20
2023-01-06T05:32:35.911Z,2.90
2023-01-06T05:35:39.839Z,2.90
2023-01-06T05:38:44.756Z,4.20
2023-01-06T05:41:48.980Z,3.00
2023-01-06T05:44:52.917Z,3.50
2023-01-06T05:47:58.063Z,3.60
2023-01-06T05:51:10.771Z,3.10
2023-01-06T05:54:14.973Z,3.00
2023-01-06T05:57:19.003Z,3.30
2023-01-06T06:00:23.314Z,3.30
2023-01-06T06:03:27.263Z,3.00
2023-01-06T06:06:31.371Z,2.60
2023-01-06T06:09:35.364Z,3.30
2023-01-06T06:12:39.768Z,2.70
2023-01-06T06:15:43.703Z,2.80
2023-01-06T06:18:52.829Z,2.90
2023-01-06T06:21:56.843Z,2.90
2023-01-06T06:25:00.873Z,2.70
2023-01-06T06:28:04.953Z,6.20
2023-01-06T06:31:20.806Z,3.30
2023-01-06T06:34:24.808Z,5.30
2023-01-06T06:37:28.813Z,3.80
2023-01-06T06:40:32.824Z,11.70
2023-01-06T06:43:36.867Z,4.20
2023-01-06T06:46:40.863Z,4.10
2023-01-06T06:49:45.081Z,3.60
2023-01-06T06:52:49.198Z,6.30
2023-01-06T06:55:53.210Z,7.00
2023-01-06T06:58:57.236Z,3.00
2023-01-06T07:02:01.435Z,2.80
2023-01-06T07:05:05.772Z,3.40
2023-01-06T07:08:09.896Z,6.70
2023-01-06T07:11:14.320Z,2.40
2023-01-06T07:14:18.383Z,4.00
2023-01-06T07:17:28.997Z,4.80
2023-01-06T07:20:34.901Z,4.90
2023-01-06T07:23:38.878Z,3.30
2023-01-06T07:26:42.901Z,3.40
2023-01-06T07:29:46.908Z,3.90
2023-01-06T07:32:51.211Z,3.50
2023-01-06T07:35:57.385Z,3.10
2023-01-06T07:39:01.348Z,2.80
2023-01-06T07:42:08.502Z,2.90
2023-01-06T07:45:12.469Z,3.60
2023-01-06T07:48:17.174Z,3.50
2023-01-06T07:51:21.666Z,4.30
2023-01-06T07:57:30.358Z,3.10
2023-01-06T08:00:35.026Z,3.50
2023-01-06T08:06:43.116Z,2.70
2023-01-06T08:09:47.101Z,2.70
2023-01-06T08:12:51.116Z,3.50
2023-01-06T08:15:55.189Z,3.10
2023-01-06T08:18:59.259Z,2.80
2023-01-06T08:22:03.345Z,3.70
2023-01-06T08:25:08.057Z,3.00
2023-01-06T08:28:11.999Z,4.70
2023-01-06T08:31:19.830Z,4.90
2023-01-06T08:34:23.838Z,4.10
2023-01-06T08:37:29.160Z,3.80
2023-01-06T08:40:33.810Z,5.20
2023-01-06T08:43:41.210Z,3.90
2023-01-06T08:46:45.728Z,3.50
2023-01-06T08:49:50.113Z,4.10
2023-01-06T08:52:54.076Z,4.10
2023-01-06T08:55:58.404Z,2.80
2023-01-06T08:59:05.210Z,4.30
2023-01-06T09:02:11.047Z,3.80
2023-01-06T09:05:15.621Z,2.90
2023-01-06T09:08:19.876Z,3.60
2023-01-06T09:11:24.605Z,3.60
2023-01-06T09:14:29.535Z,3.70
2023-01-06T09:17:33.474Z,4.00
2023-01-06T09:20:37.761Z,3.10
2023-01-06T09:23:42.021Z,3.30
2023-01-06T09:26:46.032Z,4.10
2023-01-06T09:29:50.111Z,3.50
2023-01-06T09:32:54.063Z,3.60
2023-01-06T09:35:58.091Z,5.30
2023-01-06T09:39:02.084Z,3.60
2023-01-06T09:42:33.207Z,3.10
2023-01-06T09:45:46.773Z,3.80
2023-01-06T09:49:00.450Z,3.50
2023-01-06T09:52:21.135Z,3.10
2023-01-06T09:55:34.801Z,3.70
2023-01-06T09:59:16.420Z,3.30
2023-01-06T10:02:30.376Z,3.50
2023-01-06T10:05:58.974Z,3.10
2023-01-06T10:09:35.680Z,3.30
2023-01-06T10:13:08.625Z,4.10
2023-01-06T10:16:42.181Z,3.80
2023-01-06T10:19:52.153Z,3.30
2023-01-06T10:23:19.083Z,3.50
2023-01-06T10:26:29.029Z,4.20
2023-01-06T10:29:38.169Z,4.40
2023-01-06T10:32:44.160Z,5.40
2023-01-06T10:35:48.385Z,4.60
2023-01-06T10:38:54.281Z,3.90
2023-01-06T10:42:37.005Z,3.90
2023-01-06T10:45:46.383Z,5.70
2023-01-06T10:48:52.171Z,4.00
2023-01-06T10:52:02.925Z,3.80
2023-01-06T10:55:08.167Z,4.00
2023-01-06T10:58:49.994Z,4.40
2023-01-06T11:01:57.523Z,4.70
2023-01-06T11:05:02.607Z,4.30
2023-01-06T11:08:12.654Z,5.10
2023-01-06T11:11:33.912Z,5.20
2023-01-06T11:14:39.412Z,4.20
2023-01-06T11:17:46.308Z,4.20
2023-01-06T11:21:04.600Z,4.50
2023-01-06T11:24:27.362Z,5.90
2023-01-06T11:27:31.357Z,3.60
2023-01-06T11:30:44.592Z,3.90
2023-01-06T11:33:53.179Z,3.40
2023-01-06T11:36:58.776Z,5.10
2023-01-06T11:40:29.492Z,3.70
2023-01-06T11:43:33.830Z,3.80
2023-01-06T11:46:40.613Z,3.40
2023-01-06T11:49:52.411Z,5.40
2023-01-06T11:53:15.270Z,4.30
2023-01-06T11:56:19.220Z,4.00
2023-01-06T11:59:25.416Z,5.10
2023-01-06T12:02:41.284Z,4.30
2023-01-06T12:05:54.894Z,4.00
2023-01-06T12:09:10.675Z,4.20
2023-01-06T12:12:21.557Z,5.40
2023-01-06T12:15:29.449Z,4.60
2023-01-06T12:18:37.479Z,5.90
2023-01-06T12:21:42.288Z,4.10
2023-01-06T12:24:48.715Z,4.70
2023-01-06T12:28:01.909Z,4.40
2023-01-06T12:31:16.887Z,2.50
2023-01-06T12:34:29.492Z,3.70
2023-01-06T12:37:48.458Z,3.40
2023-01-06T12:40:58.827Z,4.60
2023-01-06T12:44:11.958Z,4.20
2023-01-06T12:47:39.628Z,4.20
2023-01-06T12:50:49.839Z,3.50
2023-01-06T12:54:12.238Z,5.00
2023-01-06T12:57:25.474Z,4.90
2023-01-06T13:00:46.093Z,4.40
2023-01-06T13:04:05.834Z,4.70
2023-01-06T13:07:51.141Z,5.60
2023-01-06T13:11:19.207Z,5.70
2023-01-06T13:14:32.458Z,5.50
2023-01-06T13:17:46.714Z,5.60
2023-01-06T13:20:52.645Z,0.70
2023-01-06T13:24:13.646Z,3.90
2023-01-06T13:27:34.706Z,6.10
2023-01-06T13:30:52.069Z,5.80
2023-01-06T13:34:26.675Z,5.00
2023-01-06T13:37:35.842Z,5.20
2023-01-06T13:40:41.852Z,5.90
2023-01-06T13:43:48.541Z,8.20
2023-01-06T13:47:01.872Z,7.50
2023-01-06T13:50:07.188Z,8.10
2023-01-06T13:56:49.764Z,7.00
2023-01-06T14:00:05.386Z,7.80
2023-01-06T14:03:24.346Z,3.50
2023-01-06T14:06:28.503Z,10.20
2023-01-06T14:09:37.635Z,8.50
2023-01-06T14:12:48.551Z,8.40
2023-01-06T14:16:11.433Z,5.50
2023-01-06T14:19:30.173Z,5.90
2023-01-06T14:22:34.256Z,5.70
2023-01-06T14:25:43.423Z,3.60
2023-01-06T14:28:47.508Z,5.50
2023-01-06T14:31:51.948Z,7.50
2023-01-06T14:34:59.880Z,6.60
2023-01-06T14:38:12.499Z,6.30
2023-01-06T14:41:27.727Z,6.60
2023-01-06T14:44:44.558Z,7.50
2023-01-06T14:48:19.036Z,6.20
2023-01-06T14:51:24.265Z,7.60
2023-01-06T14:54:37.363Z,6.20
2023-01-06T14:57:41.302Z,6.40
2023-01-06T15:00:46.130Z,6.50
2023-01-06T15:07:16.508Z,6.90
2023-01-06T15:10:21.694Z,6.40
2023-01-06T15:13:32.735Z,8.10
2023-01-06T15:16:39.587Z,6.10
2023-01-06T15:19:46.341Z,6.70
2023-01-06T15:22:51.711Z,8.80
2023-01-06T15:25:56.600Z,7.90
2023-01-06T15:29:03.356Z,8.00
2023-01-06T15:32:13.165Z,7.90
2023-01-06T15:35:27.846Z,7.40
2023-01-06T15:38:35.258Z,8.70
2023-01-06T15:41:40.812Z,6.30
2023-01-06T15:45:01.243Z,7.50
2023-01-06T15:48:12.300Z,7.50
2023-01-06T15:51:19.135Z,8.90
2023-01-06T15:54:25.138Z,8.40
2023-01-06T15:57:35.128Z,6.60
2023-01-06T16:00:48.244Z,10.90
2023-01-06T16:03:55.893Z,11.20
2023-01-06T16:07:20.421Z,9.40
2023-01-06T16:10:36.234Z,8.90
2023-01-06T16:13:40.436Z,7.40
2023-01-06T16:16:44.541Z,7.90
2023-01-06T16:20:00.666Z,8.70
2023-01-06T16:23:05.159Z,8.40
2023-01-06T16:26:17.549Z,7.70
2023-01-06T16:29:30.848Z,6.30
2023-01-06T16:32:38.834Z,10.00
2023-01-06T16:35:42.742Z,9.60
2023-01-06T16:38:46.869Z,10.60
2023-01-06T16:42:00.152Z,8.80
2023-01-06T16:45:14.452Z,8.90
2023-01-06T16:48:18.886Z,8.70
2023-01-06T16:51:24.092Z,9.20
2023-01-06T16:54:28.159Z,9.10
2023-01-06T16:57:32.150Z,9.20
2023-01-06T17:00:39.872Z,8.30
2023-01-06T17:03:45.085Z,10.80
2023-01-06T17:06:48.978Z,8.50
2023-01-06T17:09:52.897Z,7.70
2023-01-06T17:13:19.690Z,8.70
2023-01-06T17:16:27.387Z,8.80
2023-01-06T17:19:34.342Z,9.70
2023-01-06T17:22:39.405Z,11.20
2023-01-06T17:25:44.501Z,8.10
2023-01-06T17:28:51.293Z,8.30
2023-01-06T17:31:57.087Z,9.20
2023-01-06T17:35:01.170Z,9.00
2023-01-06T17:38:24.678Z,11.40
2023-01-06T17:41:31.227Z,11.80
2023-01-06T17:44:38.553Z,9.90
2023-01-06T17:47:48.867Z,11.20
2023-01-06T17:50:54.757Z,11.30
2023-01-06T17:54:18.075Z,5.40
2023-01-06T17:57:21.974Z,11.00
2023-01-06T18:00:34.515Z,8.10
2023-01-06T18:03:42.379Z,11.50
2023-01-06T18:06:52.638Z,12.10
2023-01-06T18:09:56.868Z,10.40
2023-01-06T18:13:14.071Z,10.10
2023-01-06T18:16:29.321Z,9.60
2023-01-06T18:19:36.335Z,9.80
2023-01-06T18:22:40.779Z,8.90
2023-01-06T18:25:44.791Z,10.00
2023-01-06T18:28:49.097Z,8.60
2023-01-06T18:31:54.256Z,12.00
2023-01-06T18:35:05.542Z,12.30
2023-01-06T18:38:09.788Z,12.50
2023-01-06T18:41:14.800Z,12.60
2023-01-06T18:44:20.732Z,7.60
2023-01-06T18:47:25.291Z,10.20
2023-01-06T18:50:37.200Z,11.70
2023-01-06T18:53:43.342Z,10.50
2023-01-06T18:56:47.329Z,10.00
2023-01-06T18:59:51.948Z,10.10
2023-01-06T19:03:04.392Z,13.90
2023-01-06T19:06:11.519Z,13.80
2023-01-06T19:09:23.598Z,11.20
2023-01-06T19:12:39.183Z,8.20
2023-01-06T19:15:43.213Z,15.70
2023-01-06T19:18:47.229Z,7.70
2023-01-06T19:21:53.193Z,10.60
2023-01-06T19:25:16.133Z,7.90
2023-01-06T19:28:23.925Z,15.60
2023-01-06T19:31:27.943Z,13.20
2023-01-06T19:34:32.374Z,10.10
2023-01-06T19:37:36.456Z,12.00
2023-01-06T19:40:42.430Z,10.60
2023-01-06T19:43:48.232Z,9.60
2023-01-06T19:46:52.317Z,8.70
2023-01-06T19:50:00.046Z,8.30
2023-01-06T19:53:31.309Z,7.90
2023-01-06T19:56:38.703Z,11.40
2023-01-06T19:59:42.820Z,10.30
2023-01-06T20:02:47.135Z,10.50
2023-01-06T20:05:51.267Z,8.70
2023-01-06T20:08:55.260Z,11.60
2023-01-06T20:11:59.175Z,8.90
2023-01-06T20:15:05.723Z,9.20
2023-01-06T20:18:10.600Z,8.10
2023-01-06T20:21:14.625Z,12.60
2023-01-06T20:24:18.572Z,10.80
2023-01-06T20:27:23.264Z,11.40
2023-01-06T20:33:31.219Z,9.90
2023-01-06T20:36:35.311Z,12.70
2023-01-06T20:39:39.203Z,9.60
2023-01-06T20:42:43.244Z,9.70
2023-01-06T20:45:47.515Z,8.20
2023-01-06T20:48:51.553Z,11.00
2023-01-06T20:51:55.576Z,10.30
2023-01-06T20:55:00.699Z,10.80
2023-01-06T20:58:04.659Z,8.70
2023-01-06T21:01:08.706Z,8.00
2023-01-06T21:04:12.840Z,8.50
2023-01-06T21:07:16.812Z,7.20
2023-01-06T21:10:20.942Z,12.00
2023-01-06T21:13:25.039Z,11.20
2023-01-06T21:16:29.094Z,11.50
2023-01-06T21:19:33.078Z,10.40
2023-01-06T21:22:37.188Z,12.10
2023-01-06T21:25:41.084Z,11.40
2023-01-06T21:31:48.945Z,10.20
2023-01-06T21:34:52.950Z,12.00
2023-01-06T21:37:56.966Z,13.90
2023-01-06T21:41:23.484Z,14.50
2023-01-06T21:44:27.425Z,10.40
2023-01-06T21:47:31.340Z,10.90
2023-01-06T21:50:39.534Z,11.20
2023-01-06T21:53:44.235Z,10.60
2023-01-06T21:59:52.914Z,10.50
2023-01-06T22:02:56.966Z,11.50
2023-01-06T22:06:04.797Z,13.10
2023-01-06T22:09:10.914Z,12.30
2023-01-06T22:12:17.310Z,9.90
2023-01-06T22:15:22.195Z,9.20
2023-01-06T22:21:31.070Z,11.20
2023-01-06T22:24:36.302Z,10.60
2023-01-06T22:27:40.270Z,8.00
2023-01-06T22:30:44.503Z,9.50
2023-01-06T22:33:48.575Z,11.40
2023-01-06T22:36:52.487Z,11.00
2023-01-06T22:39:56.497Z,10.30
2023-01-06T22:43:00.606Z,10.80
2023-01-06T22:46:04.656Z,9.70
2023-01-06T22:49:08.653Z,9.70
2023-01-06T22:52:12.638Z,8.60
2023-01-06T22:55:16.599Z,12.00
2023-01-06T22:58:20.513Z,11.00
2023-01-06T23:01:24.627Z,11.70
2023-01-06T23:04:28.730Z,10.90
2023-01-06T23:07:40.416Z,10.40
2023-01-06T23:10:44.431Z,10.00
2023-01-06T23:13:49.044Z,11.40
2023-01-06T23:16:52.951Z,10.60
2023-01-06T23:19:56.996Z,9.30
2023-01-06T23:23:01.015Z,13.10
2023-01-06T23:26:10.968Z,9.20
2023-01-06T23:29:14.855Z,12.20
2023-01-06T23:32:20.268Z,13.20
2023-01-06T23:35:24.153Z,11.80
2023-01-06T23:38:28.157Z,10.90
2023-01-06T23:41:36.692Z,8.20
2023-01-06T23:44:40.694Z,10.80
2023-01-06T23:47:44.726Z,10.90
2023-01-06T23:50:50.759Z,9.90
2023-01-06T23:53:55.057Z,10.60
2023-01-06T23:56:58.972Z,10.40
